createdAt,value
2022-12-08T00:00:16.718Z,997.2
2022-12-08T00:01:16.711Z,997.08
2022-12-08T00:02:16.693Z,997.14
2022-12-08T00:03:16.687Z,997.13
2022-12-08T00:04:16.680Z,997.09
2022-12-08T00:05:16.663Z,997.15
2022-12-08T00:06:16.661Z,997.06
2022-12-08T00:07:16.650Z,997.11
2022-12-08T00:08:16.643Z,997.07
2022-12-08T00:09:16.625Z,997.1
2022-12-08T00:10:16.622Z,997.06
2022-12-08T00:11:16.601Z,997.08
2022-12-08T00:12:16.593Z,997.07
2022-12-08T00:13:16.578Z,996.98
2022-12-08T00:14:16.575Z,996.98
2022-12-08T00:15:16.560Z,997.01
2022-12-08T00:16:16.556Z,997.02
2022-12-08T00:17:16.540Z,996.99
2022-12-08T00:18:16.526Z,997.02
2022-12-08T00:19:16.528Z,997
2022-12-08T00:20:16.509Z,997.02
2022-12-08T00:21:16.502Z,997.05
2022-12-08T00:22:16.485Z,997.04
2022-12-08T00:23:16.496Z,997.02
2022-12-08T00:24:16.469Z,997.02
2022-12-08T00:25:16.461Z,997.03
2022-12-08T00:26:16.453Z,997
2022-12-08T00:27:16.443Z,997
2022-12-08T00:28:16.431Z,996.98
2022-12-08T00:29:16.416Z,996.95
2022-12-08T00:30:16.403Z,996.98
2022-12-08T00:31:16.396Z,996.96
2022-12-08T00:32:16.387Z,996.94
2022-12-08T00:33:16.377Z,996.94
2022-12-08T00:34:16.366Z,996.92
2022-12-08T00:35:16.351Z,996.87
2022-12-08T00:36:16.346Z,996.9
2022-12-08T00:37:16.330Z,996.86
2022-12-08T00:38:16.327Z,996.84
2022-12-08T00:39:16.321Z,996.72
2022-12-08T00:40:16.300Z,996.86
2022-12-08T00:41:16.291Z,996.87
2022-12-08T00:42:16.280Z,996.89
2022-12-08T00:43:16.275Z,996.81
2022-12-08T00:44:16.259Z,996.84
2022-12-08T00:45:16.250Z,996.84
2022-12-08T00:46:16.245Z,996.76
2022-12-08T00:47:16.231Z,996.78
2022-12-08T00:48:16.219Z,996.85
2022-12-08T00:49:16.214Z,996.83
2022-12-08T00:50:16.199Z,996.78
2022-12-08T00:51:16.193Z,996.81
2022-12-08T00:52:16.178Z,996.8
2022-12-08T00:53:16.171Z,996.81
2022-12-08T00:54:16.155Z,996.91
2022-12-08T00:55:16.144Z,996.85
2022-12-08T00:56:16.142Z,996.87
2022-12-08T00:57:16.131Z,996.85
2022-12-08T00:58:16.119Z,996.92
2022-12-08T00:59:16.103Z,996.87
2022-12-08T01:00:16.098Z,996.86
2022-12-08T01:01:16.082Z,996.86
2022-12-08T01:02:16.076Z,996.88
2022-12-08T01:03:16.072Z,996.9
2022-12-08T01:04:16.053Z,996.83
2022-12-08T01:05:16.048Z,996.83
2022-12-08T01:06:16.036Z,996.91
2022-12-08T01:07:16.022Z,996.79
2022-12-08T01:08:16.014Z,996.86
2022-12-08T01:09:16.003Z,996.84
2022-12-08T01:10:15.998Z,996.88
2022-12-08T01:11:15.980Z,996.82
2022-12-08T01:12:15.975Z,996.87
2022-12-08T01:13:15.970Z,996.82
2022-12-08T01:14:15.953Z,996.83
2022-12-08T01:15:15.947Z,996.82
2022-12-08T01:16:15.931Z,996.89
2022-12-08T01:17:15.924Z,996.78
2022-12-08T01:18:15.907Z,996.82
2022-12-08T01:19:15.896Z,996.84
2022-12-08T01:20:15.888Z,996.87
2022-12-08T01:21:15.879Z,996.84
2022-12-08T01:22:15.868Z,996.84
2022-12-08T01:23:15.857Z,996.86
2022-12-08T01:24:15.852Z,996.9
2022-12-08T01:25:15.835Z,996.82
2022-12-08T01:26:15.827Z,996.82
2022-12-08T01:27:15.816Z,996.79
2022-12-08T01:28:15.806Z,996.81
2022-12-08T01:29:15.797Z,996.82
2022-12-08T01:30:15.795Z,996.82
2022-12-08T01:31:15.784Z,996.88
2022-12-08T01:32:15.762Z,996.82
2022-12-08T01:33:15.753Z,996.85
2022-12-08T01:34:15.745Z,996.86
2022-12-08T01:35:15.734Z,996.85
2022-12-08T01:36:15.723Z,996.8
2022-12-08T01:37:15.712Z,996.82
2022-12-08T01:38:15.703Z,996.81
2022-12-08T01:39:15.690Z,996.86
2022-12-08T01:40:15.688Z,996.78
2022-12-08T01:41:15.671Z,996.79
2022-12-08T01:42:15.660Z,996.77
2022-12-08T01:43:15.653Z,996.81
2022-12-08T01:44:15.642Z,996.7
2022-12-08T01:45:15.628Z,996.77
2022-12-08T01:46:15.619Z,996.74
2022-12-08T01:47:15.612Z,996.76
2022-12-08T01:48:15.604Z,996.73
2022-12-08T01:49:15.599Z,996.7
2022-12-08T01:50:15.577Z,996.79
2022-12-08T01:51:15.566Z,996.77
2022-12-08T01:52:15.559Z,996.74
2022-12-08T01:53:15.549Z,996.77
2022-12-08T01:54:15.545Z,996.76
2022-12-08T01:55:15.541Z,996.74
2022-12-08T01:56:15.523Z,996.72
2022-12-08T01:57:15.524Z,996.82
2022-12-08T01:58:15.492Z,996.77
2022-12-08T01:59:15.486Z,996.68
2022-12-08T02:00:15.475Z,996.77
2022-12-08T02:01:15.462Z,996.75
2022-12-08T02:02:15.453Z,996.67
2022-12-08T02:03:15.441Z,996.71
2022-12-08T02:04:15.435Z,996.79
2022-12-08T02:05:15.428Z,996.73
2022-12-08T02:06:15.410Z,996.75
2022-12-08T02:07:15.401Z,996.7
2022-12-08T02:08:15.388Z,996.74
2022-12-08T02:09:15.379Z,996.62
2022-12-08T02:10:15.373Z,996.64
2022-12-08T02:11:15.368Z,996.58
2022-12-08T02:12:15.355Z,996.6
2022-12-08T02:13:15.343Z,996.58
2022-12-08T02:14:15.331Z,996.52
2022-12-08T02:15:15.320Z,996.52
2022-12-08T02:16:15.307Z,996.56
2022-12-08T02:17:15.308Z,996.54
2022-12-08T02:18:15.290Z,996.52
2022-12-08T02:19:15.282Z,996.37
2022-12-08T02:20:15.273Z,996.52
2022-12-08T02:21:15.255Z,996.37
2022-12-08T02:22:15.247Z,996.34
2022-12-08T02:23:15.241Z,996.34
2022-12-08T02:24:15.223Z,996.33
2022-12-08T02:25:15.216Z,996.35
2022-12-08T02:26:15.208Z,996.32
2022-12-08T02:27:15.195Z,996.31
2022-12-08T02:28:15.206Z,996.31
2022-12-08T02:29:15.188Z,996.31
2022-12-08T02:30:15.201Z,996.24
2022-12-08T02:31:15.154Z,996.27
2022-12-08T02:32:15.152Z,996.23
2022-12-08T02:33:15.135Z,996.21
2022-12-08T02:34:15.122Z,996.18
2022-12-08T02:35:15.112Z,996.16
2022-12-08T02:36:15.105Z,996.16
2022-12-08T02:37:15.095Z,996.13
2022-12-08T02:38:15.090Z,996.13
2022-12-08T02:39:15.085Z,996.09
2022-12-08T02:40:15.073Z,996.07
2022-12-08T02:41:15.058Z,996.11
2022-12-08T02:42:15.051Z,996.05
2022-12-08T02:43:15.048Z,996.06
2022-12-08T02:44:15.049Z,996.14
2022-12-08T02:45:15.007Z,996.07
2022-12-08T02:46:15.001Z,996.03
2022-12-08T02:47:14.989Z,995.98
2022-12-08T02:48:14.977Z,996.04
2022-12-08T02:49:14.981Z,996.01
2022-12-08T02:50:14.967Z,996
2022-12-08T02:51:14.949Z,995.95
2022-12-08T02:52:14.948Z,995.94
2022-12-08T02:54:14.915Z,996.03
2022-12-08T02:55:14.907Z,995.97
2022-12-08T02:56:14.893Z,995.98
2022-12-08T02:57:14.886Z,995.98
2022-12-08T02:58:14.876Z,995.93
2022-12-08T02:59:14.867Z,995.95
2022-12-08T03:00:14.851Z,995.91
2022-12-08T03:01:14.846Z,995.94
2022-12-08T03:02:14.831Z,995.98
2022-12-08T03:03:14.820Z,995.95
2022-12-08T03:04:14.817Z,995.85
2022-12-08T03:05:14.801Z,995.89
2022-12-08T03:06:14.806Z,995.91
2022-12-08T03:07:14.787Z,995.85
2022-12-08T03:08:14.771Z,995.84
2022-12-08T03:09:14.765Z,995.84
2022-12-08T03:10:14.751Z,995.88
2022-12-08T03:11:14.742Z,995.88
2022-12-08T03:12:14.735Z,995.84
2022-12-08T03:13:14.731Z,995.88
2022-12-08T03:14:14.709Z,995.87
2022-12-08T03:15:14.698Z,995.85
2022-12-08T03:16:14.690Z,995.85
2022-12-08T03:17:14.690Z,995.74
2022-12-08T03:18:14.667Z,995.74
2022-12-08T03:19:14.680Z,995.69
2022-12-08T03:20:14.649Z,995.74
2022-12-08T03:21:14.638Z,995.74
2022-12-08T03:22:14.626Z,995.68
2022-12-08T03:23:14.618Z,995.62
2022-12-08T03:24:14.607Z,995.67
2022-12-08T03:25:14.607Z,995.65
2022-12-08T03:26:14.586Z,995.64
2022-12-08T03:27:14.591Z,995.62
2022-12-08T03:28:14.570Z,995.6
2022-12-08T03:29:14.558Z,995.63
2022-12-08T03:30:14.545Z,995.67
2022-12-08T03:31:14.533Z,995.6
2022-12-08T03:32:14.521Z,995.66
2022-12-08T03:33:14.515Z,995.63
2022-12-08T03:34:14.505Z,995.62
2022-12-08T03:35:14.495Z,995.68
2022-12-08T03:36:14.819Z,995.56
2022-12-08T03:37:14.471Z,995.56
2022-12-08T03:38:14.463Z,995.54
2022-12-08T03:39:14.454Z,995.5
2022-12-08T03:40:14.456Z,995.51
2022-12-08T03:41:14.428Z,995.49
2022-12-08T03:42:14.421Z,995.48
2022-12-08T03:43:14.428Z,995.44
2022-12-08T03:44:14.403Z,995.41
2022-12-08T03:45:14.387Z,995.37
2022-12-08T03:46:14.434Z,995.47
2022-12-08T03:47:14.370Z,995.47
2022-12-08T03:48:14.361Z,995.46
2022-12-08T03:49:14.349Z,995.44
2022-12-08T03:50:14.335Z,995.44
2022-12-08T03:51:14.323Z,995.43
2022-12-08T03:52:14.316Z,995.41
2022-12-08T03:53:14.307Z,995.43
2022-12-08T03:54:14.303Z,995.32
2022-12-08T03:55:14.284Z,995.34
2022-12-08T03:56:14.273Z,995.34
2022-12-08T03:57:14.266Z,995.28
2022-12-08T03:58:14.254Z,995.31
2022-12-08T03:59:14.243Z,995.26
2022-12-08T04:00:14.237Z,995.25
2022-12-08T04:01:14.222Z,995.21
2022-12-08T04:02:14.213Z,995.21
2022-12-08T04:03:14.202Z,995.21
2022-12-08T04:04:14.191Z,995.21
2022-12-08T04:05:14.189Z,995.24
2022-12-08T04:06:14.172Z,995.19
2022-12-08T04:07:14.164Z,995.22
2022-12-08T04:08:14.154Z,995.2
2022-12-08T04:09:14.139Z,995.21
2022-12-08T04:10:14.133Z,995.2
2022-12-08T04:11:14.117Z,995.19
2022-12-08T04:12:14.114Z,995.17
2022-12-08T04:13:14.099Z,995.17
2022-12-08T04:14:14.094Z,995.19
2022-12-08T04:15:14.081Z,995.25
2022-12-08T04:16:14.066Z,995.18
2022-12-08T04:17:14.056Z,995.17
2022-12-08T04:18:14.048Z,995.12
2022-12-08T04:19:14.042Z,995.16
2022-12-08T04:20:14.023Z,995.07
2022-12-08T04:21:14.016Z,995.11
2022-12-08T04:22:14.004Z,995.14
2022-12-08T04:23:13.990Z,995.09
2022-12-08T04:24:13.986Z,995.07
2022-12-08T04:25:13.973Z,995.05
2022-12-08T04:26:13.961Z,995.09
2022-12-08T04:27:13.959Z,995.12
2022-12-08T04:28:13.939Z,995.14
2022-12-08T04:29:13.938Z,995.05
2022-12-08T04:30:13.918Z,995.06
2022-12-08T04:31:13.916Z,995.11
2022-12-08T04:32:13.897Z,995.06
2022-12-08T04:33:13.890Z,995.1
2022-12-08T04:34:13.907Z,995.08
2022-12-08T04:35:13.864Z,995.12
2022-12-08T04:36:13.855Z,995.07
2022-12-08T04:37:13.852Z,995.04
2022-12-08T04:38:13.836Z,995.04
2022-12-08T04:39:13.820Z,995.05
2022-12-08T04:40:13.814Z,995
2022-12-08T04:41:13.809Z,995.03
2022-12-08T04:42:13.886Z,994.96
2022-12-08T04:43:13.779Z,994.96
2022-12-08T04:44:13.798Z,994.97
2022-12-08T04:45:13.759Z,994.93
2022-12-08T04:46:13.747Z,994.93
2022-12-08T04:47:13.743Z,994.91
2022-12-08T04:48:13.731Z,994.92
2022-12-08T04:49:13.731Z,994.92
2022-12-08T04:50:13.708Z,994.9
2022-12-08T04:51:13.699Z,994.94
2022-12-08T04:52:13.688Z,994.89
2022-12-08T04:53:13.673Z,994.91
2022-12-08T04:54:13.671Z,994.91
2022-12-08T04:55:13.659Z,994.85
2022-12-08T04:56:13.645Z,994.82
2022-12-08T04:57:13.630Z,994.9
2022-12-08T04:58:13.630Z,994.86
2022-12-08T04:59:13.623Z,994.81
2022-12-08T05:00:13.612Z,994.87
2022-12-08T05:01:13.595Z,994.89
2022-12-08T05:02:13.582Z,994.79
2022-12-08T05:03:13.588Z,994.77
2022-12-08T05:04:13.558Z,994.84
2022-12-08T05:05:13.552Z,994.8
2022-12-08T05:06:13.539Z,994.77
2022-12-08T05:07:13.540Z,994.75
2022-12-08T05:08:13.531Z,994.78
2022-12-08T05:09:13.509Z,994.77
2022-12-08T05:10:13.530Z,994.8
2022-12-08T05:11:13.487Z,994.8
2022-12-08T05:12:13.475Z,994.77
2022-12-08T05:13:13.464Z,994.73
2022-12-08T05:14:13.460Z,994.72
2022-12-08T05:15:13.443Z,994.79
2022-12-08T05:16:13.429Z,994.77
2022-12-08T05:17:13.423Z,994.75
2022-12-08T05:18:13.417Z,994.84
2022-12-08T05:19:13.405Z,994.83
2022-12-08T05:20:13.418Z,994.72
2022-12-08T05:21:13.377Z,994.76
2022-12-08T05:22:13.371Z,994.69
2022-12-08T05:23:13.356Z,994.7
2022-12-08T05:24:13.350Z,994.71
2022-12-08T05:25:13.338Z,994.74
2022-12-08T05:26:13.348Z,994.72
2022-12-08T05:27:13.319Z,994.68
2022-12-08T05:28:13.319Z,994.66
2022-12-08T05:29:13.310Z,994.62
2022-12-08T05:30:13.280Z,994.69
2022-12-08T05:31:13.271Z,994.61
2022-12-08T05:32:13.264Z,994.61
2022-12-08T05:33:13.278Z,994.6
2022-12-08T05:34:13.259Z,994.63
2022-12-08T05:35:13.254Z,994.6
2022-12-08T05:36:13.221Z,994.6
2022-12-08T05:37:13.217Z,994.64
2022-12-08T05:38:13.250Z,994.6
2022-12-08T05:39:13.190Z,994.57
2022-12-08T05:40:13.173Z,994.59
2022-12-08T05:41:13.168Z,994.61
2022-12-08T05:42:13.152Z,994.6
2022-12-08T05:43:13.141Z,994.6
2022-12-08T05:44:13.138Z,994.52
2022-12-08T05:45:13.130Z,994.57
2022-12-08T05:46:13.109Z,994.53
2022-12-08T05:47:13.108Z,994.55
2022-12-08T05:48:13.111Z,994.52
2022-12-08T05:49:13.115Z,994.52
2022-12-08T05:50:13.073Z,994.52
2022-12-08T05:51:13.066Z,994.51
2022-12-08T05:52:13.051Z,994.48
2022-12-08T05:53:13.036Z,994.52
2022-12-08T05:54:13.024Z,994.54
2022-12-08T05:55:13.013Z,994.52
2022-12-08T05:56:13.008Z,994.51
2022-12-08T05:57:13.027Z,994.49
2022-12-08T05:58:12.989Z,994.5
2022-12-08T05:59:12.981Z,994.41
2022-12-08T06:00:12.964Z,994.49
2022-12-08T06:01:12.950Z,994.47
2022-12-08T06:02:12.939Z,994.47
2022-12-08T06:03:12.928Z,994.51
2022-12-08T06:04:12.923Z,994.51
2022-12-08T06:05:12.927Z,994.45
2022-12-08T06:06:12.900Z,994.49
2022-12-08T06:07:12.887Z,994.47
2022-12-08T06:08:12.878Z,994.46
2022-12-08T06:09:12.868Z,994.42
2022-12-08T06:10:12.859Z,994.51
2022-12-08T06:11:12.851Z,994.48
2022-12-08T06:12:12.831Z,994.46
2022-12-08T06:13:12.825Z,994.36
2022-12-08T06:14:12.816Z,994.41
2022-12-08T06:15:12.838Z,994.43
2022-12-08T06:16:12.802Z,994.41
2022-12-08T06:17:12.799Z,994.42
2022-12-08T06:18:12.782Z,994.39
2022-12-08T06:19:12.770Z,994.35
2022-12-08T06:20:12.754Z,994.38
2022-12-08T06:21:12.742Z,994.49
2022-12-08T06:22:12.742Z,994.37
2022-12-08T06:23:12.730Z,994.44
2022-12-08T06:24:12.715Z,994.43
2022-12-08T06:25:12.701Z,994.43
2022-12-08T06:26:12.685Z,994.43
2022-12-08T06:27:12.679Z,994.45
2022-12-08T06:28:12.662Z,994.48
2022-12-08T06:29:12.656Z,994.45
2022-12-08T06:30:12.658Z,994.45
2022-12-08T06:31:12.634Z,994.42
2022-12-08T06:32:12.627Z,994.42
2022-12-08T06:33:12.615Z,994.41
2022-12-08T06:34:12.604Z,994.46
2022-12-08T06:35:12.594Z,994.46
2022-12-08T06:36:12.587Z,994.42
2022-12-08T06:37:12.576Z,994.44
2022-12-08T06:38:12.575Z,994.47
2022-12-08T06:39:12.551Z,994.4
2022-12-08T06:40:12.543Z,994.44
2022-12-08T06:41:12.547Z,994.42
2022-12-08T06:42:12.544Z,994.45
2022-12-08T06:43:12.510Z,994.49
2022-12-08T06:44:12.496Z,994.47
2022-12-08T06:45:12.486Z,994.44
2022-12-08T06:46:12.490Z,994.44
2022-12-08T06:47:12.465Z,994.37
2022-12-08T06:48:12.460Z,994.45
2022-12-08T06:49:12.450Z,994.43
2022-12-08T06:50:12.436Z,994.47
2022-12-08T06:51:12.423Z,994.43
2022-12-08T06:52:12.416Z,994.41
2022-12-08T06:53:12.411Z,994.43
2022-12-08T06:54:12.393Z,994.45
2022-12-08T06:55:12.384Z,994.42
2022-12-08T06:56:12.370Z,994.43
2022-12-08T06:57:12.390Z,994.4
2022-12-08T06:58:12.358Z,994.41
2022-12-08T06:59:12.344Z,994.33
2022-12-08T07:00:12.332Z,994.36
2022-12-08T07:01:12.321Z,994.43
2022-12-08T07:02:12.327Z,994.32
2022-12-08T07:03:12.307Z,994.35
2022-12-08T07:04:12.303Z,994.37
2022-12-08T07:05:12.307Z,994.39
2022-12-08T07:06:12.269Z,994.35
2022-12-08T07:07:12.266Z,994.44
2022-12-08T07:08:12.241Z,994.42
2022-12-08T07:09:12.277Z,994.44
2022-12-08T07:10:12.224Z,994.45
2022-12-08T07:11:12.214Z,994.52
2022-12-08T07:12:12.201Z,994.43
2022-12-08T07:13:12.197Z,994.51
2022-12-08T07:14:12.182Z,994.43
2022-12-08T07:15:12.172Z,994.45
2022-12-08T07:16:12.159Z,994.43
2022-12-08T07:17:12.164Z,994.46
2022-12-08T07:18:12.160Z,994.46
2022-12-08T07:19:12.123Z,994.49
2022-12-08T07:20:12.121Z,994.43
2022-12-08T07:21:12.107Z,994.5
2022-12-08T07:22:12.104Z,994.46
2022-12-08T07:23:12.082Z,994.48
2022-12-08T07:24:12.069Z,994.49
2022-12-08T07:25:12.069Z,994.48
2022-12-08T07:26:12.062Z,994.48
2022-12-08T07:27:12.043Z,994.52
2022-12-08T07:28:12.036Z,994.47
2022-12-08T07:29:12.021Z,994.53
2022-12-08T07:30:12.008Z,994.5
2022-12-08T07:31:11.992Z,994.53
2022-12-08T07:32:11.998Z,994.42
2022-12-08T07:33:11.997Z,994.48
2022-12-08T07:34:11.965Z,994.45
2022-12-08T07:35:11.953Z,994.45
2022-12-08T07:36:11.948Z,994.48
2022-12-08T07:37:11.962Z,994.54
2022-12-08T07:38:11.920Z,994.45
2022-12-08T07:39:12.001Z,994.45
2022-12-08T07:40:11.900Z,994.42
2022-12-08T07:41:11.895Z,994.44
2022-12-08T07:42:11.877Z,994.46
2022-12-08T07:43:11.868Z,994.46
2022-12-08T07:44:11.859Z,994.43
2022-12-08T07:45:11.850Z,994.48
2022-12-08T07:46:11.846Z,994.41
2022-12-08T07:47:11.833Z,994.47
2022-12-08T07:48:11.825Z,994.43
2022-12-08T07:49:11.805Z,994.45
2022-12-08T07:50:11.801Z,994.45
2022-12-08T07:51:11.785Z,994.44
2022-12-08T07:52:11.868Z,994.52
2022-12-08T07:53:11.774Z,994.5
2022-12-08T07:54:11.758Z,994.53
2022-12-08T07:55:11.748Z,994.5
2022-12-08T07:56:11.735Z,994.48
2022-12-08T07:57:11.723Z,994.49
2022-12-08T07:58:11.735Z,994.51
2022-12-08T07:59:11.737Z,994.53
2022-12-08T08:00:11.686Z,994.48
2022-12-08T08:01:11.683Z,994.46
2022-12-08T08:02:11.668Z,994.45
2022-12-08T08:03:11.666Z,994.42
2022-12-08T08:04:11.643Z,994.5
2022-12-08T08:05:11.636Z,994.51
2022-12-08T08:06:11.672Z,994.45
2022-12-08T08:07:11.613Z,994.5
2022-12-08T08:08:11.609Z,994.52
2022-12-08T08:09:11.600Z,994.44
2022-12-08T08:10:11.583Z,994.44
2022-12-08T08:11:11.575Z,994.44
2022-12-08T08:12:11.564Z,994.46
2022-12-08T08:13:11.549Z,994.43
2022-12-08T08:14:11.539Z,994.52
2022-12-08T08:15:11.537Z,994.5
2022-12-08T08:16:11.527Z,994.51
2022-12-08T08:17:11.511Z,994.6
2022-12-08T08:18:11.495Z,994.56
2022-12-08T08:19:11.490Z,994.54
2022-12-08T08:20:11.485Z,994.53
2022-12-08T08:21:11.466Z,994.56
2022-12-08T08:22:11.470Z,994.46
2022-12-08T08:23:11.453Z,994.5
2022-12-08T08:24:11.443Z,994.51
2022-12-08T08:25:11.451Z,994.5
2022-12-08T08:26:11.424Z,994.46
2022-12-08T08:27:11.404Z,994.47
2022-12-08T08:28:11.415Z,994.45
2022-12-08T08:29:11.385Z,994.48
2022-12-08T08:30:11.368Z,994.5
2022-12-08T08:31:11.355Z,994.51
2022-12-08T08:32:11.370Z,994.61
2022-12-08T08:33:11.345Z,994.58
2022-12-08T08:34:11.337Z,994.56
2022-12-08T08:35:11.350Z,994.56
2022-12-08T08:36:11.302Z,994.63
2022-12-08T08:37:11.294Z,994.54
2022-12-08T08:38:11.286Z,994.63
2022-12-08T08:39:11.278Z,994.58
2022-12-08T08:40:11.298Z,994.63
2022-12-08T08:41:11.253Z,994.6
2022-12-08T08:42:11.391Z,994.62
2022-12-08T08:43:11.272Z,994.7
2022-12-08T08:44:11.280Z,994.72
2022-12-08T08:45:11.233Z,994.65
2022-12-08T08:46:11.201Z,994.66
2022-12-08T08:47:11.188Z,994.6
2022-12-08T08:48:11.175Z,994.6
2022-12-08T08:49:11.158Z,994.61
2022-12-08T08:50:11.162Z,994.65
2022-12-08T08:51:11.145Z,994.62
2022-12-08T08:52:11.131Z,994.65
2022-12-08T08:53:11.122Z,994.59
2022-12-08T08:54:11.108Z,994.62
2022-12-08T08:55:11.099Z,994.65
2022-12-08T08:56:11.090Z,994.66
2022-12-08T08:57:11.076Z,994.62
2022-12-08T08:58:11.064Z,994.66
2022-12-08T08:59:11.062Z,994.67
2022-12-08T09:00:11.045Z,994.73
2022-12-08T09:01:11.044Z,994.61
2022-12-08T09:02:11.020Z,994.68
2022-12-08T09:03:11.014Z,994.64
2022-12-08T09:04:11.001Z,994.62
2022-12-08T09:05:10.992Z,994.59
2022-12-08T09:06:10.985Z,994.62
2022-12-08T09:07:10.966Z,994.62
2022-12-08T09:08:10.961Z,994.64
2022-12-08T09:09:10.945Z,994.66
2022-12-08T09:10:10.936Z,994.62
2022-12-08T09:11:10.925Z,994.68
2022-12-08T09:12:10.915Z,994.69
2022-12-08T09:13:10.910Z,994.68
2022-12-08T09:14:10.891Z,994.68
2022-12-08T09:15:10.885Z,994.65
2022-12-08T09:16:10.882Z,994.71
2022-12-08T09:17:10.860Z,994.73
2022-12-08T09:18:10.858Z,994.71
2022-12-08T09:19:10.847Z,994.71
2022-12-08T09:20:10.832Z,994.71
2022-12-08T09:21:10.821Z,994.7
2022-12-08T09:22:10.814Z,994.66
2022-12-08T09:23:10.840Z,994.73
2022-12-08T09:24:10.794Z,994.77
2022-12-08T09:25:10.781Z,994.78
2022-12-08T09:26:10.772Z,994.75
2022-12-08T09:27:10.766Z,994.79
2022-12-08T09:28:10.750Z,994.75
2022-12-08T09:29:10.747Z,994.81
2022-12-08T09:30:10.731Z,994.78
2022-12-08T09:31:10.767Z,994.78
2022-12-08T09:32:10.707Z,994.78
2022-12-08T09:33:10.698Z,994.77
2022-12-08T09:34:10.683Z,994.82
2022-12-08T09:35:10.679Z,994.77
2022-12-08T09:36:10.665Z,994.75
2022-12-08T09:37:10.655Z,994.83
2022-12-08T09:38:10.643Z,994.76
2022-12-08T09:39:10.633Z,994.78
2022-12-08T09:40:10.626Z,994.68
2022-12-08T09:41:10.615Z,994.73
2022-12-08T09:42:10.614Z,994.72
2022-12-08T09:43:10.603Z,994.81
2022-12-08T09:44:10.580Z,994.74
2022-12-08T09:45:10.571Z,994.68
2022-12-08T09:46:10.570Z,994.74
2022-12-08T09:47:10.555Z,994.73
2022-12-08T09:48:10.538Z,994.72
2022-12-08T09:49:10.531Z,994.74
2022-12-08T09:50:10.514Z,994.66
2022-12-08T09:51:10.506Z,994.74
2022-12-08T09:52:10.493Z,994.72
2022-12-08T09:53:10.482Z,994.66
2022-12-08T09:54:10.481Z,994.66
2022-12-08T09:55:10.461Z,994.64
2022-12-08T09:56:10.451Z,994.73
2022-12-08T09:57:10.449Z,994.69
2022-12-08T09:58:10.434Z,994.7
2022-12-08T09:59:10.419Z,994.71
2022-12-08T10:00:10.422Z,994.69
2022-12-08T10:01:10.431Z,994.72
2022-12-08T10:02:10.390Z,994.7
2022-12-08T10:03:10.387Z,994.67
2022-12-08T10:04:10.379Z,994.64
2022-12-08T10:05:10.355Z,994.72
2022-12-08T10:06:10.347Z,994.67
2022-12-08T10:07:10.346Z,994.66
2022-12-08T10:08:10.325Z,994.68
2022-12-08T10:09:10.314Z,994.67
2022-12-08T10:10:10.307Z,994.65
2022-12-08T10:11:10.297Z,994.71
2022-12-08T10:12:10.292Z,994.67
2022-12-08T10:13:10.296Z,994.73
2022-12-08T10:14:10.486Z,994.66
2022-12-08T10:15:10.258Z,994.66
2022-12-08T10:16:10.266Z,994.67
2022-12-08T10:17:10.232Z,994.7
2022-12-08T10:18:10.226Z,994.67
2022-12-08T10:19:10.253Z,994.69
2022-12-08T10:20:10.212Z,994.69
2022-12-08T10:21:10.194Z,994.64
2022-12-08T10:22:10.185Z,994.67
2022-12-08T10:23:10.176Z,994.68
2022-12-08T10:24:10.159Z,994.74
2022-12-08T10:25:10.147Z,994.65
2022-12-08T10:26:10.161Z,994.63
2022-12-08T10:27:10.126Z,994.69
2022-12-08T10:28:10.121Z,994.68
2022-12-08T10:29:10.109Z,994.66
2022-12-08T10:30:10.098Z,994.59
2022-12-08T10:31:10.083Z,994.6
2022-12-08T10:32:10.084Z,994.64
2022-12-08T10:33:10.066Z,994.67
2022-12-08T10:34:10.063Z,994.62
2022-12-08T10:35:10.051Z,994.55
2022-12-08T10:36:10.034Z,994.57
2022-12-08T10:37:10.019Z,994.56
2022-12-08T10:38:10.034Z,994.52
2022-12-08T10:39:10.001Z,994.54
2022-12-08T10:40:09.990Z,994.58
2022-12-08T10:41:09.977Z,994.5
2022-12-08T10:42:09.972Z,994.44
2022-12-08T10:43:09.968Z,994.49
2022-12-08T10:44:09.957Z,994.55
2022-12-08T10:45:09.939Z,994.53
2022-12-08T10:46:09.937Z,994.58
2022-12-08T10:47:09.925Z,994.52
2022-12-08T10:48:09.907Z,994.52
2022-12-08T10:49:09.902Z,994.49
2022-12-08T10:50:09.882Z,994.49
2022-12-08T10:51:09.867Z,994.5
2022-12-08T10:52:09.863Z,994.52
2022-12-08T10:53:09.854Z,994.46
2022-12-08T10:54:09.847Z,994.53
2022-12-08T10:55:09.830Z,994.48
2022-12-08T10:56:09.834Z,994.44
2022-12-08T10:57:09.816Z,994.45
2022-12-08T10:58:09.800Z,994.45
2022-12-08T10:59:09.810Z,994.46
2022-12-08T11:00:09.785Z,994.46
2022-12-08T11:01:09.770Z,994.48
2022-12-08T11:02:09.753Z,994.41
2022-12-08T11:03:09.747Z,994.42
2022-12-08T11:04:09.731Z,994.46
2022-12-08T11:05:09.727Z,994.42
2022-12-08T11:06:09.712Z,994.44
2022-12-08T11:07:09.700Z,994.42
2022-12-08T11:08:09.688Z,994.43
2022-12-08T11:09:09.677Z,994.44
2022-12-08T11:10:09.671Z,994.47
2022-12-08T11:11:09.660Z,994.49
2022-12-08T11:12:09.690Z,994.45
2022-12-08T11:13:09.641Z,994.46
2022-12-08T11:14:09.627Z,994.46
2022-12-08T11:15:09.626Z,994.49
2022-12-08T11:16:09.621Z,994.49
2022-12-08T11:17:09.627Z,994.53
2022-12-08T11:18:09.592Z,994.54
2022-12-08T11:19:09.578Z,994.51
2022-12-08T11:20:09.579Z,994.54
2022-12-08T11:21:09.553Z,994.46
2022-12-08T11:22:09.549Z,994.47
2022-12-08T11:23:09.531Z,994.47
2022-12-08T11:24:09.523Z,994.45
2022-12-08T11:25:09.515Z,994.52
2022-12-08T11:26:10.440Z,994.45
2022-12-08T11:27:09.502Z,994.49
2022-12-08T11:28:09.496Z,994.45
2022-12-08T11:29:09.471Z,994.45
2022-12-08T11:30:09.468Z,994.44
2022-12-08T11:31:10.405Z,994.44
2022-12-08T11:32:09.433Z,994.44
2022-12-08T11:33:09.435Z,994.42
2022-12-08T11:34:09.441Z,994.47
2022-12-08T11:35:09.405Z,994.43
2022-12-08T11:36:09.388Z,994.45
2022-12-08T11:37:09.380Z,994.45
2022-12-08T11:38:09.383Z,994.46
2022-12-08T11:39:09.374Z,994.41
2022-12-08T11:40:09.351Z,994.39
2022-12-08T11:41:09.365Z,994.35
2022-12-08T11:42:09.341Z,994.4
2022-12-08T11:43:09.327Z,994.38
2022-12-08T11:44:09.334Z,994.36
2022-12-08T11:45:09.304Z,994.31
2022-12-08T11:46:09.290Z,994.35
2022-12-08T11:47:09.275Z,994.35
2022-12-08T11:48:09.274Z,994.32
2022-12-08T11:49:09.252Z,994.27
2022-12-08T11:50:09.266Z,994.31
2022-12-08T11:51:09.232Z,994.33
2022-12-08T11:52:09.214Z,994.33
2022-12-08T11:53:09.203Z,994.33
2022-12-08T11:54:09.211Z,994.31
2022-12-08T11:55:09.192Z,994.31
2022-12-08T11:56:09.191Z,994.32
2022-12-08T11:57:09.186Z,994.3
2022-12-08T11:58:09.194Z,994.24
2022-12-08T11:59:09.140Z,994.26
2022-12-08T12:00:09.135Z,994.31
2022-12-08T12:01:09.123Z,994.31
2022-12-08T12:02:09.105Z,994.27
2022-12-08T12:03:09.144Z,994.25
2022-12-08T12:04:09.104Z,994.26
2022-12-08T12:05:09.091Z,994.35
2022-12-08T12:06:09.078Z,994.27
2022-12-08T12:07:09.052Z,994.24
2022-12-08T12:08:09.046Z,994.31
2022-12-08T12:09:09.044Z,994.28
2022-12-08T12:10:09.022Z,994.27
2022-12-08T12:11:09.020Z,994.23
2022-12-08T12:12:09.019Z,994.23
2022-12-08T12:13:09.011Z,994.21
2022-12-08T12:14:09.000Z,994.26
2022-12-08T12:15:08.969Z,994.22
2022-12-08T12:16:08.957Z,994.21
2022-12-08T12:17:08.945Z,994.21
2022-12-08T12:18:08.956Z,994.26
2022-12-08T12:19:08.927Z,994.21
2022-12-08T12:20:08.923Z,994.25
2022-12-08T12:21:08.915Z,994.27
2022-12-08T12:22:08.929Z,994.23
2022-12-08T12:23:08.876Z,994.21
2022-12-08T12:24:08.865Z,994.19
2022-12-08T12:25:08.859Z,994.23
2022-12-08T12:26:08.873Z,994.21
2022-12-08T12:27:08.844Z,994.21
2022-12-08T12:28:08.822Z,994.24
2022-12-08T12:29:08.815Z,994.25
2022-12-08T12:30:08.807Z,994.2
2022-12-08T12:31:08.808Z,994.23